Time;durP1;ratioP1;P1;durP2;ratioP2;P2;SDS_P1;SDS_P2;PMS_P1;PMS_P2;Temp;Humidity;BMP_temperature;BMP_pressure;BME280_temperature;BME280_humidity;BME280_pressure;Samples;Min_cycle;Max_cycle;Signal;HPM_P1;HPM_P2
2023/07/16 00:01:52;;;;;;;10.75;2.45;;;15.80;99.90;;;;;;5019224;28;20036;-65
2023/07/16 00:04:17;;;;;;;4.43;2.42;;;15.80;99.90;;;;;;5066259;28;20056;-64
2023/07/16 00:06:43;;;;;;;5.40;2.38;;;15.70;99.90;;;;;;5035188;28;20523;-64
2023/07/16 00:09:09;;;;;;;4.45;2.33;;;15.70;99.90;;;;;;5028680;28;20086;-65
2023/07/16 00:11:34;;;;;;;11.25;2.75;;;15.70;99.90;;;;;;5043324;28;20063;-63
2023/07/16 00:14:01;;;;;;;6.95;2.25;;;15.60;99.90;;;;;;5048429;28;20032;-65
2023/07/16 00:16:27;;;;;;;6.97;2.67;;;15.60;99.90;;;;;;5011673;28;20452;-65
2023/07/16 00:18:53;;;;;;;7.75;2.80;;;15.50;99.90;;;;;;5037897;28;20041;-64
2023/07/16 00:21:18;;;;;;;6.57;2.42;;;15.60;99.90;;;;;;5042627;28;20158;-63
2023/07/16 00:23:44;;;;;;;8.95;2.80;;;15.50;99.90;;;;;;5048322;28;20072;-64
2023/07/16 00:26:10;;;;;;;7.85;3.08;;;15.50;99.90;;;;;;5051794;28;20099;-65
2023/07/16 00:28:35;;;;;;;6.35;2.47;;;15.60;99.90;;;;;;5030035;28;20151;-63
2023/07/16 00:31:01;;;;;;;6.43;2.72;;;15.60;99.90;;;;;;5028857;28;20037;-64
2023/07/16 00:33:27;;;;;;;9.63;3.05;;;15.70;99.90;;;;;;5062365;28;20124;-64
2023/07/16 00:35:52;;;;;;;7.18;2.50;;;15.70;99.90;;;;;;5029344;28;20052;-65
2023/07/16 00:38:18;;;;;;;6.45;2.90;;;15.70;99.90;;;;;;5012956;28;20041;-64
2023/07/16 00:40:44;;;;;;;6.50;2.65;;;15.70;99.90;;;;;;5029095;28;20055;-64
2023/07/16 00:43:10;;;;;;;6.80;2.67;;;15.80;99.90;;;;;;5051641;28;20410;-64
2023/07/16 00:45:38;;;;;;;6.63;2.53;;;15.80;99.90;;;;;;5028620;28;20520;-66
2023/07/16 00:48:06;;;;;;;6.78;2.60;;;15.80;99.90;;;;;;5042197;28;20094;-64
2023/07/16 00:50:38;;;;;;;10.23;2.75;;;15.90;99.90;;;;;;5029163;28;20346;-64
2023/07/16 00:53:05;;;;;;;10.50;2.55;;;15.90;99.90;;;;;;5030332;28;20127;-65
2023/07/16 00:55:31;;;;;;;6.18;2.80;;;15.80;99.90;;;;;;5028499;28;20085;-65
2023/07/16 00:58:05;;;;;;;8.23;2.65;;;15.80;99.90;;;;;;5048823;28;20081;-65
2023/07/16 01:00:39;;;;;;;5.63;2.50;;;15.80;99.90;;;;;;5043090;28;20049;-64
2023/07/16 01:03:07;;;;;;;6.63;2.55;;;15.80;99.90;;;;;;5048237;28;20047;-64
2023/07/16 01:05:48;;;;;;;6.38;2.50;;;15.70;99.90;;;;;;5030922;28;20451;-65
2023/07/16 01:08:17;;;;;;;6.60;2.65;;;15.70;99.90;;;;;;5043395;28;20083;-65
2023/07/16 01:10:43;;;;;;;5.95;2.60;;;15.70;99.90;;;;;;5045388;28;20048;-64
2023/07/16 01:13:09;;;;;;;7.80;2.55;;;15.70;99.90;;;;;;5032821;28;20029;-64
2023/07/16 01:15:34;;;;;;;7.63;2.60;;;15.70;99.90;;;;;;5046532;28;20043;-63
2023/07/16 01:18:00;;;;;;;6.88;2.33;;;15.60;99.90;;;;;;5034354;28;20111;-64
2023/07/16 01:20:26;;;;;;;7.60;2.50;;;15.60;99.90;;;;;;5043894;28;20087;-63
2023/07/16 01:23:48;;;;;;;6.03;2.75;;;15.60;99.90;;;;;;5029863;28;20074;-63
2023/07/16 01:26:35;;;;;;;8.60;2.40;;;15.50;99.90;;;;;;4959248;28;20047;-64
2023/07/16 01:29:21;;;;;;;18.85;2.92;;;15.50;99.90;;;;;;4964890;28;20499;-63
2023/07/16 01:31:49;;;;;;;5.53;2.13;;;15.50;99.90;;;;;;5034505;28;20046;-65
2023/07/16 01:34:15;;;;;;;4.85;2.33;;;15.40;99.90;;;;;;5051521;28;20124;-63
2023/07/16 01:36:42;;;;;;;5.72;2.60;;;15.50;99.90;;;;;;5058248;28;20127;-63
2023/07/16 01:39:07;;;;;;;7.38;2.65;;;15.40;99.90;;;;;;5044173;28;20048;-63
2023/07/16 01:41:33;;;;;;;8.30;2.90;;;15.30;99.90;;;;;;5037051;28;20045;-64
2023/07/16 01:43:58;;;;;;;11.65;2.80;;;15.30;99.90;;;;;;5050590;28;20037;-63
2023/07/16 01:46:25;;;;;;;10.65;2.92;;;15.30;99.90;;;;;;5013986;28;20068;-63
2023/07/16 01:48:50;;;;;;;5.90;3.13;;;15.40;99.90;;;;;;5032313;28;20042;-63
2023/07/16 01:51:16;;;;;;;9.80;2.92;;;15.40;99.90;;;;;;5049982;28;20509;-63
2023/07/16 01:53:42;;;;;;;9.07;2.58;;;15.50;99.90;;;;;;5060238;28;20043;-63
2023/07/16 01:56:08;;;;;;;5.90;2.65;;;15.50;99.90;;;;;;5013913;28;20045;-63
2023/07/16 01:58:33;;;;;;;5.95;2.85;;;15.60;99.90;;;;;;5050441;28;20043;-64
2023/07/16 02:00:59;;;;;;;8.13;2.92;;;15.60;99.90;;;;;;5049435;28;20037;-63
2023/07/16 02:03:25;;;;;;;10.18;3.35;;;15.60;99.90;;;;;;5035157;28;20094;-63
2023/07/16 02:05:50;;;;;;;8.68;2.63;;;15.50;99.90;;;;;;5031629;28;20076;-62
2023/07/16 02:08:17;;;;;;;8.20;3.42;;;15.50;99.90;;;;;;5050971;28;20033;-62
2023/07/16 02:10:42;;;;;;;8.18;2.88;;;15.50;99.90;;;;;;5049246;28;20058;-62
2023/07/16 02:13:08;;;;;;;7.75;3.40;;;15.50;99.90;;;;;;5033507;28;20063;-63
2023/07/16 02:15:33;;;;;;;9.43;3.17;;;15.60;99.90;;;;;;5047260;28;20068;-63
2023/07/16 02:18:03;;;;;;;8.55;2.92;;;15.50;99.90;;;;;;5031990;28;20041;-63
2023/07/16 02:20:29;;;;;;;10.88;3.70;;;15.60;99.90;;;;;;5049055;28;20044;-63
2023/07/16 02:22:54;;;;;;;10.40;3.47;;;15.60;99.90;;;;;;5049450;28;20051;-61
2023/07/16 02:25:20;;;;;;;7.93;3.40;;;15.50;99.90;;;;;;5049378;28;20139;-63
2023/07/16 02:27:46;;;;;;;10.60;3.35;;;15.50;99.90;;;;;;5048628;28;20055;-62
2023/07/16 02:30:11;;;;;;;10.85;3.33;;;15.50;99.90;;;;;;5058141;28;20028;-62
2023/07/16 02:32:37;;;;;;;14.65;3.83;;;15.50;99.90;;;;;;5051011;28;20047;-62
2023/07/16 02:35:03;;;;;;;7.15;3.20;;;15.50;99.90;;;;;;5028909;28;20443;-63
2023/07/16 02:37:29;;;;;;;10.07;3.45;;;15.60;99.60;;;;;;5050663;28;20421;-62
2023/07/16 02:39:54;;;;;;;9.88;4.05;;;15.50;99.90;;;;;;5049674;28;20037;-62
2023/07/16 02:42:20;;;;;;;8.20;3.30;;;15.50;99.90;;;;;;5050513;28;20041;-62
2023/07/16 02:44:45;;;;;;;8.07;3.33;;;15.50;99.40;;;;;;5031213;28;20152;-62
2023/07/16 02:47:11;;;;;;;13.60;3.90;;;15.50;98.90;;;;;;5047297;28;20040;-62
2023/07/16 02:49:38;;;;;;;10.45;3.65;;;15.40;99.10;;;;;;5047865;28;20623;-62
2023/07/16 02:52:04;;;;;;;10.48;3.70;;;15.30;99.70;;;;;;5048062;28;20154;-63
2023/07/16 02:54:29;;;;;;;12.25;3.70;;;15.30;99.30;;;;;;5045645;28;20044;-62
2023/07/16 02:56:55;;;;;;;6.53;3.17;;;15.30;98.70;;;;;;5046662;28;20413;-63
2023/07/16 02:59:21;;;;;;;9.98;3.30;;;15.40;97.90;;;;;;5023509;28;20059;-63
2023/07/16 03:01:46;;;;;;;8.38;3.35;;;15.40;97.10;;;;;;5048029;28;20615;-62
2023/07/16 03:04:12;;;;;;;10.05;3.17;;;15.40;97.70;;;;;;5048234;28;20479;-62
2023/07/16 03:06:37;;;;;;;6.32;3.30;;;15.40;97.00;;;;;;5046505;28;20033;-62
2023/07/16 03:09:03;;;;;;;9.88;3.28;;;15.40;96.10;;;;;;5050402;28;20174;-62
2023/07/16 03:11:29;;;;;;;9.93;3.40;;;15.40;95.70;;;;;;5029766;28;20330;-62
2023/07/16 03:13:54;;;;;;;8.93;3.80;;;15.40;95.80;;;;;;5047768;28;20116;-62
2023/07/16 03:16:20;;;;;;;10.95;3.22;;;15.40;96.40;;;;;;5044107;28;20037;-62
2023/07/16 03:18:46;;;;;;;8.00;3.38;;;15.30;96.30;;;;;;5064062;28;20033;-62
2023/07/16 03:21:12;;;;;;;13.90;3.55;;;15.30;96.10;;;;;;5049057;28;20044;-63
2023/07/16 03:23:37;;;;;;;8.60;3.03;;;15.30;95.90;;;;;;5034919;28;20076;-62
2023/07/16 03:26:03;;;;;;;8.25;3.08;;;15.30;95.70;;;;;;5044770;28;20084;-62
2023/07/16 03:28:29;;;;;;;6.38;3.10;;;15.30;96.00;;;;;;5038433;28;20501;-62
2023/07/16 03:30:54;;;;;;;10.20;3.50;;;15.40;95.40;;;;;;5048133;28;20036;-62
2023/07/16 03:33:20;;;;;;;5.55;3.22;;;15.30;95.00;;;;;;5029071;28;20040;-62
2023/07/16 03:35:47;;;;;;;8.35;3.63;;;15.30;95.60;;;;;;5048165;28;20048;-63
2023/07/16 03:38:14;;;;;;;8.80;3.50;;;15.40;94.90;;;;;;5047267;28;20052;-63
2023/07/16 03:40:39;;;;;;;13.68;3.30;;;15.30;95.50;;;;;;5050014;28;20040;-63
2023/07/16 03:43:05;;;;;;;12.18;3.85;;;15.30;94.20;;;;;;5048656;28;20041;-62
2023/07/16 03:45:31;;;;;;;12.27;3.83;;;15.30;95.10;;;;;;5047608;28;20043;-63
2023/07/16 03:47:56;;;;;;;7.90;3.97;;;15.30;94.50;;;;;;5045374;28;20120;-63
2023/07/16 03:50:22;;;;;;;8.20;3.65;;;15.40;94.40;;;;;;5049032;28;20065;-61
2023/07/16 03:52:48;;;;;;;12.05;4.20;;;15.40;93.90;;;;;;5048158;28;20041;-62
2023/07/16 03:55:13;;;;;;;7.88;3.20;;;15.40;94.50;;;;;;5035774;28;20075;-63
2023/07/16 03:57:39;;;;;;;9.82;3.70;;;15.30;94.70;;;;;;5051446;28;20041;-61
2023/07/16 04:00:08;;;;;;;9.43;3.65;;;15.40;94.30;;;;;;5030921;28;20114;-61
2023/07/16 04:02:33;;;;;;;6.85;3.30;;;15.30;94.40;;;;;;5045423;28;20087;-62
2023/07/16 04:04:59;;;;;;;10.35;3.70;;;15.30;94.30;;;;;;5047813;28;20069;-62
2023/07/16 04:07:24;;;;;;;7.03;3.63;;;15.30;94.00;;;;;;5048912;28;20033;-62
2023/07/16 04:09:50;;;;;;;10.55;3.90;;;15.30;94.00;;;;;;5046532;28;20491;-62
2023/07/16 04:12:16;;;;;;;6.90;3.92;;;15.30;94.10;;;;;;5029555;28;20124;-62
2023/07/16 04:14:42;;;;;;;7.32;3.20;;;15.30;94.50;;;;;;5028747;28;20460;-63
2023/07/16 04:17:07;;;;;;;12.30;3.85;;;15.30;93.90;;;;;;5046333;28;20492;-61
2023/07/16 04:19:33;;;;;;;10.35;3.80;;;15.40;94.10;;;;;;5030590;28;20119;-62
2023/07/16 04:21:59;;;;;;;10.45;4.15;;;15.40;93.90;;;;;;5026524;28;20055;-62
2023/07/16 04:24:26;;;;;;;9.88;3.28;;;15.40;94.10;;;;;;5048105;28;20396;-62
2023/07/16 04:26:53;;;;;;;10.18;3.63;;;15.40;93.80;;;;;;5028964;28;20161;-62
2023/07/16 04:29:19;;;;;;;8.63;3.53;;;15.50;93.60;;;;;;5048198;28;20557;-62
2023/07/16 04:31:44;;;;;;;11.02;3.63;;;15.50;92.90;;;;;;5040068;28;20040;-62
2023/07/16 04:34:10;;;;;;;7.57;3.42;;;15.50;93.90;;;;;;5045562;28;20039;-63
2023/07/16 04:36:35;;;;;;;13.10;3.60;;;15.60;93.70;;;;;;5048550;28;20371;-62
2023/07/16 04:39:01;;;;;;;11.70;3.65;;;15.60;93.80;;;;;;5030917;28;20524;-61
2023/07/16 04:41:27;;;;;;;9.07;3.75;;;15.70;93.70;;;;;;5046030;28;20048;-61
2023/07/16 04:43:52;;;;;;;8.48;3.80;;;15.70;93.80;;;;;;5038748;28;20530;-62
2023/07/16 04:46:18;;;;;;;9.23;3.80;;;15.70;93.50;;;;;;5031075;28;20037;-62
2023/07/16 04:48:44;;;;;;;11.45;3.78;;;15.70;93.80;;;;;;5035523;28;20067;-62
2023/07/16 04:51:09;;;;;;;11.07;3.38;;;15.80;93.70;;;;;;5061713;28;20033;-63
2023/07/16 04:53:35;;;;;;;13.43;3.30;;;15.90;92.40;;;;;;5050735;28;20079;-62
2023/07/16 04:56:00;;;;;;;8.75;3.67;;;15.90;93.20;;;;;;5047944;28;20041;-61
2023/07/16 04:58:26;;;;;;;11.75;3.17;;;16.00;93.10;;;;;;5032345;28;20045;-62
2023/07/16 05:00:52;;;;;;;7.88;3.45;;;16.00;92.70;;;;;;5029132;28;20048;-63
2023/07/16 05:03:17;;;;;;;8.38;3.50;;;16.10;91.90;;;;;;5051616;28;20484;-62
2023/07/16 05:05:43;;;;;;;10.20;3.13;;;16.10;92.50;;;;;;5034387;28;20068;-62
2023/07/16 05:08:08;;;;;;;13.00;3.35;;;16.20;92.40;;;;;;5058022;28;20058;-62
2023/07/16 05:10:34;;;;;;;9.75;4.00;;;16.20;91.30;;;;;;5058275;28;20060;-63
2023/07/16 05:13:00;;;;;;;9.30;3.50;;;16.30;91.50;;;;;;5053245;28;20048;-63
2023/07/16 05:15:25;;;;;;;9.73;3.75;;;16.40;91.70;;;;;;5037019;28;20044;-63
2023/07/16 05:17:51;;;;;;;13.63;3.60;;;16.50;91.50;;;;;;5050777;28;20106;-63
2023/07/16 05:20:16;;;;;;;10.82;3.20;;;16.60;91.10;;;;;;5013523;28;20068;-62
2023/07/16 05:22:42;;;;;;;10.48;3.40;;;16.70;91.30;;;;;;5033173;28;20381;-63
2023/07/16 05:25:08;;;;;;;13.32;3.83;;;16.80;90.80;;;;;;5043177;28;20057;-62
2023/07/16 05:27:34;;;;;;;7.95;3.30;;;16.90;90.70;;;;;;5062348;28;20045;-63
2023/07/16 05:29:59;;;;;;;8.85;3.30;;;17.00;90.30;;;;;;5051705;28;20163;-62
2023/07/16 05:32:25;;;;;;;9.45;3.58;;;17.10;91.20;;;;;;5067239;28;20166;-61
2023/07/16 05:34:50;;;;;;;9.57;3.42;;;17.10;91.40;;;;;;5057307;28;20043;-61
2023/07/16 05:37:16;;;;;;;9.38;3.38;;;17.20;91.00;;;;;;5031718;28;20064;-63
2023/07/16 05:39:41;;;;;;;7.85;2.80;;;17.30;91.60;;;;;;5034220;28;20076;-68
2023/07/16 05:42:07;;;;;;;9.55;3.10;;;17.30;90.30;;;;;;5051039;28;20056;-64
2023/07/16 05:44:33;;;;;;;6.78;3.20;;;17.30;85.20;;;;;;5017274;28;20040;-61
2023/07/16 05:46:58;;;;;;;10.13;3.20;;;17.40;90.60;;;;;;5046975;28;20348;-62
2023/07/16 05:49:26;;;;;;;10.82;3.47;;;17.50;90.90;;;;;;5052276;28;20036;-62
2023/07/16 05:51:51;;;;;;;12.98;3.33;;;17.70;91.10;;;;;;5062725;28;20132;-63
2023/07/16 05:54:17;;;;;;;9.48;2.97;;;17.80;90.30;;;;;;5053750;28;20171;-63
2023/07/16 05:56:43;;;;;;;7.28;2.95;;;17.80;88.90;;;;;;5049911;28;20086;-63
2023/07/16 05:59:08;;;;;;;7.20;3.05;;;17.90;86.40;;;;;;5050209;28;20112;-63
2023/07/16 06:01:34;;;;;;;5.72;3.05;;;18.00;87.90;;;;;;5026401;28;20041;-62
2023/07/16 06:03:59;;;;;;;6.63;3.20;;;18.20;87.30;;;;;;5037188;28;20087;-62
2023/07/16 06:06:28;;;;;;;12.35;2.92;;;18.40;86.30;;;;;;5050443;28;20044;-63
2023/07/16 06:08:53;;;;;;;6.07;3.00;;;18.40;82.30;;;;;;5058376;28;20044;-64
2023/07/16 06:11:19;;;;;;;7.35;2.75;;;18.50;83.10;;;;;;5044066;28;20480;-65
2023/07/16 06:13:44;;;;;;;8.80;3.17;;;18.60;83.80;;;;;;5051919;28;20041;-63
2023/07/16 06:16:10;;;;;;;10.77;3.55;;;18.80;84.30;;;;;;5046625;28;20151;-63
2023/07/16 06:18:36;;;;;;;8.45;3.60;;;18.80;83.20;;;;;;5049487;28;20094;-63
2023/07/16 06:21:01;;;;;;;10.05;4.25;;;18.80;82.30;;;;;;5050768;28;20029;-63
2023/07/16 06:23:27;;;;;;;8.68;3.08;;;18.90;81.20;;;;;;5049865;28;20080;-63
2023/07/16 06:25:56;;;;;;;9.88;3.33;;;19.20;81.30;;;;;;5048084;28;20054;-64
2023/07/16 06:28:22;;;;;;;5.85;3.28;;;19.20;75.50;;;;;;5040152;28;20052;-65
2023/07/16 06:30:49;;;;;;;8.05;3.53;;;19.40;79.90;;;;;;5027573;28;20413;-63
2023/07/16 06:33:14;;;;;;;9.82;3.38;;;19.50;79.00;;;;;;5044123;28;20080;-64
2023/07/16 06:35:43;;;;;;;7.25;3.17;;;19.40;73.50;;;;;;5049523;28;20508;-65
2023/07/16 06:38:08;;;;;;;8.60;3.80;;;19.60;75.80;;;;;;5050012;28;20041;-63
2023/07/16 06:40:34;;;;;;;10.23;3.20;;;19.60;75.90;;;;;;5044444;28;20073;-63
2023/07/16 06:43:00;;;;;;;7.65;3.15;;;19.60;72.80;;;;;;5037468;28;20037;-64
2023/07/16 06:45:25;;;;;;;9.40;3.90;;;19.80;75.00;;;;;;5024900;28;20041;-63
2023/07/16 06:47:51;;;;;;;7.90;3.50;;;19.90;72.40;;;;;;5048889;28;20048;-64
2023/07/16 06:50:16;;;;;;;9.43;4.00;;;20.00;72.20;;;;;;5050974;28;20051;-62
2023/07/16 06:52:42;;;;;;;8.88;4.40;;;20.20;72.10;;;;;;5049178;28;20477;-63
2023/07/16 06:55:08;;;;;;;6.90;3.40;;;20.10;70.20;;;;;;5032916;28;20098;-63
2023/07/16 06:57:33;;;;;;;7.32;3.33;;;19.80;68.40;;;;;;5047586;28;20186;-63
2023/07/16 06:59:59;;;;;;;8.07;3.50;;;19.90;70.10;;;;;;5025972;28;20033;-64
2023/07/16 07:02:24;;;;;;;9.68;3.53;;;19.90;69.60;;;;;;5044674;28;20064;-64
2023/07/16 07:04:50;;;;;;;7.70;3.30;;;20.20;69.40;;;;;;5049311;28;20055;-62
2023/07/16 07:07:16;;;;;;;4.85;3.20;;;20.20;67.90;;;;;;5049358;28;20044;-63
2023/07/16 07:09:42;;;;;;;8.55;3.25;;;20.30;68.60;;;;;;5026856;28;20040;-64
2023/07/16 07:12:07;;;;;;;8.00;3.22;;;20.60;68.30;;;;;;5049071;28;20033;-63
2023/07/16 07:14:33;;;;;;;6.22;3.15;;;21.00;66.40;;;;;;5048686;28;20044;-63
2023/07/16 07:16:59;;;;;;;10.43;3.63;;;20.80;67.10;;;;;;5043583;28;20460;-62
2023/07/16 07:19:25;;;;;;;8.95;3.90;;;20.50;65.00;;;;;;5050690;28;20048;-63
2023/07/16 07:21:51;;;;;;;11.02;3.70;;;20.70;66.90;;;;;;5039838;28;20388;-62
2023/07/16 07:24:16;;;;;;;8.40;3.28;;;20.70;65.60;;;;;;5048998;28;20076;-63
2023/07/16 07:26:42;;;;;;;6.75;3.20;;;20.90;65.70;;;;;;5046845;28;20053;-66
2023/07/16 07:29:08;;;;;;;5.72;3.45;;;21.20;64.60;;;;;;5034414;28;20453;-63
2023/07/16 07:31:33;;;;;;;8.25;3.60;;;21.40;64.40;;;;;;5042421;28;20048;-65
2023/07/16 07:33:59;;;;;;;10.77;3.95;;;21.60;61.80;;;;;;5047726;28;20043;-63
2023/07/16 07:36:25;;;;;;;9.63;3.95;;;21.40;61.90;;;;;;5052836;28;20459;-63
2023/07/16 07:38:50;;;;;;;9.05;3.75;;;21.60;63.40;;;;;;5049014;28;20041;-63
2023/07/16 07:41:16;;;;;;;5.25;3.35;;;21.80;63.70;;;;;;5050047;28;20361;-64
2023/07/16 07:43:42;;;;;;;4.22;3.20;;;21.90;62.10;;;;;;5048664;28;20796;-64
2023/07/16 07:46:08;;;;;;;8.15;3.42;;;22.00;62.20;;;;;;5046806;28;20190;-63
2023/07/16 07:48:33;;;;;;;8.43;3.38;;;22.20;61.60;;;;;;5024113;28;20039;-63
2023/07/16 07:51:00;;;;;;;6.18;3.15;;;22.20;59.40;;;;;;5048404;28;20082;-63
2023/07/16 07:53:25;;;;;;;8.07;3.67;;;22.30;59.50;;;;;;5014095;28;20044;-64
2023/07/16 07:55:51;;;;;;;8.07;3.53;;;22.20;59.70;;;;;;5046458;28;20048;-64
2023/07/16 07:58:17;;;;;;;7.80;3.97;;;22.10;59.00;;;;;;5047680;28;20036;-63
2023/07/16 08:00:43;;;;;;;6.15;2.90;;;22.20;58.50;;;;;;5021837;28;20037;-65
2023/07/16 08:03:08;;;;;;;11.10;3.42;;;22.20;58.50;;;;;;5028610;28;20468;-64
2023/07/16 08:05:34;;;;;;;7.97;3.40;;;21.90;57.30;;;;;;5045953;28;20437;-64
2023/07/16 08:07:59;;;;;;;8.00;3.42;;;21.80;58.50;;;;;;5026064;28;20060;-65
2023/07/16 08:10:25;;;;;;;9.15;3.53;;;22.30;56.70;;;;;;5027052;28;20482;-64
2023/07/16 08:12:50;;;;;;;12.02;3.78;;;22.50;58.00;;;;;;5049626;28;20042;-64
2023/07/16 08:15:17;;;;;;;5.47;3.50;;;22.50;57.60;;;;;;5045032;28;20041;-62
2023/07/16 08:17:43;;;;;;;8.20;3.63;;;22.50;57.10;;;;;;5012510;28;20056;-63
2023/07/16 08:20:09;;;;;;;7.35;3.40;;;22.30;56.90;;;;;;5025461;28;20093;-62
2023/07/16 08:22:35;;;;;;;6.57;3.10;;;22.00;56.30;;;;;;5047999;28;20167;-65
2023/07/16 08:25:02;;;;;;;6.68;3.25;;;22.00;57.10;;;;;;5046278;28;20140;-63
2023/07/16 08:27:27;;;;;;;9.55;3.60;;;21.50;57.20;;;;;;5045922;28;20331;-62
2023/07/16 08:29:53;;;;;;;7.07;3.42;;;21.70;57.50;;;;;;5047817;28;20029;-63
2023/07/16 08:32:19;;;;;;;8.30;4.10;;;21.50;55.90;;;;;;5045575;28;20523;-63
2023/07/16 08:34:44;;;;;;;7.38;3.10;;;21.50;56.80;;;;;;5048007;28;20052;-65
2023/07/16 08:37:10;;;;;;;8.02;3.45;;;21.50;55.30;;;;;;5024941;28;20032;-63
2023/07/16 08:39:36;;;;;;;9.30;3.88;;;21.20;56.60;;;;;;5030625;28;20087;-63
2023/07/16 08:42:01;;;;;;;8.13;3.42;;;21.80;56.50;;;;;;5040954;28;20033;-63
2023/07/16 08:44:28;;;;;;;9.10;3.60;;;22.00;55.90;;;;;;5044303;28;20440;-63
2023/07/16 08:46:54;;;;;;;7.82;3.45;;;22.60;55.80;;;;;;5044036;28;20818;-65
2023/07/16 08:49:22;;;;;;;7.65;3.50;;;23.20;55.30;;;;;;5030938;28;20032;-64
2023/07/16 08:51:48;;;;;;;8.82;4.00;;;23.50;54.60;;;;;;5044706;28;20155;-62
2023/07/16 08:54:18;;;;;;;8.05;3.05;;;23.60;53.90;;;;;;5027911;28;20033;-64
2023/07/16 08:56:44;;;;;;;;;;;23.70;53.40;;;;;;5053797;28;20048;-62
2023/07/16 08:59:10;;;;;;;7.82;3.70;;;23.30;50.00;;;;;;5046064;28;19916;-63
2023/07/16 09:01:37;;;;;;;8.80;3.97;;;23.10;54.60;;;;;;5041823;28;20049;-65
2023/07/16 09:04:03;;;;;;;10.07;3.70;;;22.90;53.40;;;;;;5024834;28;20037;-63
2023/07/16 09:06:28;;;;;;;9.15;3.83;;;22.50;53.30;;;;;;5046572;28;20037;-67
2023/07/16 09:08:55;;;;;;;7.93;3.80;;;22.80;54.00;;;;;;5047310;28;20087;-63
2023/07/16 09:11:22;;;;;;;12.02;3.80;;;23.00;52.80;;;;;;5026426;28;20133;-65
2023/07/16 09:13:48;;;;;;;6.40;3.90;;;23.10;53.40;;;;;;5024453;28;20053;-64
2023/07/16 09:16:16;;;;;;;6.95;3.53;;;23.00;52.90;;;;;;5045846;28;20045;-63
2023/07/16 09:18:42;;;;;;;8.02;3.58;;;23.70;52.40;;;;;;5035509;28;20069;-66
2023/07/16 09:21:08;;;;;;;8.20;3.58;;;24.40;51.70;;;;;;5038389;28;20118;-64
2023/07/16 09:23:34;;;;;;;9.32;3.95;;;25.30;50.00;;;;;;5049564;28;20051;-64
2023/07/16 09:26:00;;;;;;;7.75;4.25;;;25.90;48.80;;;;;;5044946;28;20396;-65
2023/07/16 09:28:26;;;;;;;7.75;3.65;;;26.10;48.20;;;;;;5046585;28;20044;-64
2023/07/16 09:30:52;;;;;;;6.22;3.63;;;25.80;46.90;;;;;;5017400;28;20049;-65
2023/07/16 09:33:25;;;;;;;9.82;4.20;;;25.20;46.90;;;;;;5041997;28;20048;-65
2023/07/16 09:35:51;;;;;;;6.78;3.53;;;24.60;44.80;;;;;;5055703;28;20046;-63
2023/07/16 09:38:18;;;;;;;7.43;3.85;;;24.00;48.50;;;;;;5050188;28;20033;-63
2023/07/16 09:40:44;;;;;;;9.50;3.72;;;23.70;48.70;;;;;;5052482;28;20079;-64
2023/07/16 09:43:11;;;;;;;8.38;3.38;;;23.50;48.90;;;;;;5025589;28;20052;-64
2023/07/16 09:45:36;;;;;;;8.60;4.07;;;23.90;49.20;;;;;;5044458;28;20152;-68
2023/07/16 09:48:03;;;;;;;7.38;3.95;;;23.70;49.00;;;;;;5038596;28;20116;-63
2023/07/16 09:50:31;;;;;;;6.00;3.80;;;23.30;49.50;;;;;;5040477;28;20037;-65
2023/07/16 09:52:57;;;;;;;7.57;3.80;;;23.10;50.20;;;;;;5007950;28;20041;-65
2023/07/16 09:55:24;;;;;;;8.52;3.72;;;23.10;50.70;;;;;;5020481;28;20060;-65
2023/07/16 09:57:56;;;;;;;7.95;3.20;;;22.90;50.80;;;;;;4999698;28;20043;-65
2023/07/16 10:00:23;;;;;;;8.90;4.13;;;22.70;51.40;;;;;;5034133;28;20045;-63
2023/07/16 10:02:51;;;;;;;6.97;3.65;;;22.40;51.60;;;;;;5020308;28;20033;-64
2023/07/16 10:05:18;;;;;;;12.13;4.20;;;22.60;51.90;;;;;;5051479;28;20052;-64
2023/07/16 10:07:52;;;;;;;9.85;3.75;;;23.00;51.70;;;;;;5047321;28;20037;-63
2023/07/16 10:10:18;;;;;;;8.25;3.63;;;23.50;51.10;;;;;;5035003;28;20112;-64
2023/07/16 10:13:01;;;;;;;10.18;4.40;;;23.80;50.20;;;;;;5027362;28;20067;-63
2023/07/16 10:15:28;;;;;;;9.82;3.67;;;23.60;49.60;;;;;;5036619;28;20041;-66
2023/07/16 10:17:55;;;;;;;6.10;3.35;;;23.30;51.00;;;;;;5048756;28;20499;-63
2023/07/16 10:20:36;;;;;;;6.80;4.10;;;23.70;50.30;;;;;;5030922;28;20037;-64
2023/07/16 10:23:15;;;;;;;7.20;3.85;;;24.30;47.90;;;;;;5050324;28;20044;-63
2023/07/16 10:25:57;;;;;;;6.22;3.45;;;24.50;46.70;;;;;;5031390;28;20048;-63
2023/07/16 10:28:23;;;;;;;8.35;3.30;;;24.00;48.00;;;;;;5049878;28;20087;-63
2023/07/16 10:30:50;;;;;;;6.75;3.83;;;23.50;49.30;;;;;;5047772;28;20080;-65
2023/07/16 10:33:15;;;;;;;6.25;3.40;;;23.60;48.50;;;;;;5022047;28;20037;-63
2023/07/16 10:35:45;;;;;;;6.40;3.80;;;23.90;49.60;;;;;;5031149;28;20049;-66
2023/07/16 10:38:11;;;;;;;5.65;3.20;;;24.20;48.80;;;;;;5048726;28;20068;-64
2023/07/16 10:40:42;;;;;;;7.13;3.63;;;24.10;49.20;;;;;;5044165;28;20112;-65
2023/07/16 10:43:07;;;;;;;8.63;3.75;;;24.00;49.60;;;;;;5012053;28;20045;-65
2023/07/16 10:45:33;;;;;;;7.05;3.80;;;23.90;48.70;;;;;;5027181;28;20041;-64
2023/07/16 10:47:59;;;;;;;9.18;3.92;;;23.70;49.30;;;;;;5045962;28;20521;-64
2023/07/16 10:50:24;;;;;;;7.90;4.07;;;23.40;49.90;;;;;;5028663;28;20589;-63
2023/07/16 10:52:54;;;;;;;6.40;3.50;;;23.00;50.50;;;;;;5044770;28;20064;-63
2023/07/16 10:55:20;;;;;;;7.82;3.92;;;22.50;51.60;;;;;;5040208;28;20476;-63
2023/07/16 10:57:50;;;;;;;7.43;3.85;;;22.20;52.50;;;;;;5046630;28;20039;-64
2023/07/16 11:00:17;;;;;;;7.90;3.90;;;21.70;54.00;;;;;;5042953;28;20407;-63
2023/07/16 11:02:43;;;;;;;7.35;4.43;;;21.50;53.70;;;;;;5049650;28;20365;-63
2023/07/16 11:05:11;;;;;;;11.68;4.20;;;22.10;53.50;;;;;;5048074;28;20043;-63
2023/07/16 11:07:36;;;;;;;11.27;4.28;;;22.40;53.20;;;;;;5031824;28;20531;-63
2023/07/16 11:10:02;;;;;;;9.77;4.25;;;22.40;53.00;;;;;;5031407;28;20129;-63
2023/07/16 11:12:28;;;;;;;10.40;4.38;;;22.70;52.80;;;;;;5028408;28;20056;-65
2023/07/16 11:14:55;;;;;;;8.63;3.78;;;22.90;52.40;;;;;;5026568;28;20175;-62
2023/07/16 11:17:24;;;;;;;8.48;4.30;;;22.90;52.00;;;;;;5031652;28;20333;-63
2023/07/16 11:19:51;;;;;;;12.35;4.78;;;23.10;52.50;;;;;;5050819;28;20124;-63
2023/07/16 11:22:16;;;;;;;8.80;3.60;;;23.10;51.90;;;;;;5029333;28;20045;-62
2023/07/16 11:24:50;;;;;;;7.30;3.58;;;22.90;52.00;;;;;;5048842;28;20037;-66
2023/07/16 11:27:27;;;;;;;6.25;3.95;;;22.50;50.00;;;;;;5047697;28;20049;-65
2023/07/16 11:29:54;;;;;;;10.25;4.40;;;22.20;51.80;;;;;;5046156;28;20073;-63
2023/07/16 11:32:30;;;;;;;8.52;4.00;;;22.00;52.70;;;;;;5047107;28;20120;-64
2023/07/16 11:34:57;;;;;;;7.13;3.70;;;22.10;53.00;;;;;;5013711;28;20087;-64
2023/07/16 11:37:25;;;;;;;9.70;4.00;;;22.00;52.40;;;;;;5046805;28;20572;-64
2023/07/16 11:39:51;;;;;;;9.13;3.75;;;21.90;52.60;;;;;;5044483;28;20123;-64
2023/07/16 11:42:24;;;;;;;5.63;2.92;;;21.90;52.70;;;;;;5024401;28;20041;-63
2023/07/16 11:44:50;;;;;;;6.25;3.40;;;21.80;53.20;;;;;;5046781;28;20048;-63
2023/07/16 11:47:15;;;;;;;6.43;3.20;;;21.80;53.40;;;;;;5029167;28;20547;-64
2023/07/16 11:49:41;;;;;;;7.55;3.33;;;21.80;53.70;;;;;;5047171;28;20041;-64
2023/07/16 11:52:07;;;;;;;6.40;3.10;;;21.70;53.70;;;;;;5046009;28;20506;-63
2023/07/16 11:54:33;;;;;;;6.43;3.65;;;21.40;52.20;;;;;;5029492;28;20064;-64
2023/07/16 11:56:58;;;;;;;7.72;3.60;;;21.30;53.50;;;;;;5047136;28;20032;-63
2023/07/16 11:59:24;;;;;;;9.07;4.38;;;21.00;54.00;;;;;;5031262;28;20455;-63
2023/07/16 12:01:49;;;;;;;6.40;3.53;;;20.90;54.20;;;;;;5027059;28;20419;-65
2023/07/16 12:04:17;;;;;;;5.72;3.33;;;21.10;54.20;;;;;;5048086;28;20033;-63
2023/07/16 12:06:43;;;;;;;6.82;3.83;;;21.20;54.20;;;;;;5014209;28;20736;-62
2023/07/16 12:09:08;;;;;;;8.27;4.00;;;21.20;54.70;;;;;;5030688;28;20039;-64
2023/07/16 12:11:34;;;;;;;8.63;3.90;;;21.10;54.60;;;;;;5048809;28;20043;-62
2023/07/16 12:13:59;;;;;;;7.88;3.80;;;21.30;54.70;;;;;;5028687;28;20516;-63
2023/07/16 12:16:25;;;;;;;9.00;4.53;;;21.40;54.70;;;;;;5044748;28;20040;-63
2023/07/16 12:18:51;;;;;;;10.18;3.92;;;21.40;54.60;;;;;;5013808;28;20056;-66
2023/07/16 12:21:16;;;;;;;11.80;4.13;;;21.80;53.70;;;;;;5051188;28;20048;-63
2023/07/16 12:23:42;;;;;;;8.18;4.10;;;22.30;53.40;;;;;;5030662;28;20139;-64
2023/07/16 12:26:08;;;;;;;9.05;3.70;;;23.10;52.20;;;;;;5037876;28;20126;-65
2023/07/16 12:28:34;;;;;;;6.93;3.40;;;23.50;51.00;;;;;;5027175;28;20049;-65
2023/07/16 12:30:59;;;;;;;6.15;3.55;;;23.20;50.50;;;;;;5030442;28;20036;-63
2023/07/16 12:33:25;;;;;;;6.57;3.45;;;22.90;51.00;;;;;;5048323;28;20139;-64
2023/07/16 12:35:51;;;;;;;6.35;3.38;;;22.70;51.50;;;;;;5048271;28;20488;-63
2023/07/16 12:38:16;;;;;;;7.18;3.67;;;22.50;52.20;;;;;;5045734;28;20044;-64
2023/07/16 12:40:42;;;;;;;8.15;3.80;;;22.30;52.80;;;;;;5031731;28;20520;-64
2023/07/16 12:43:07;;;;;;;6.05;3.55;;;22.20;53.20;;;;;;5048976;28;20041;-65